createdAt,value
2019-06-08T00:00:16.789Z,14.60
2019-06-08T00:02:46.058Z,14.70
2019-06-08T00:05:16.746Z,14.70
2019-06-08T00:07:46.061Z,14.60
2019-06-08T00:10:15.221Z,14.60
2019-06-08T00:12:44.282Z,14.70
2019-06-08T00:15:16.063Z,14.60
2019-06-08T00:17:45.578Z,14.60
2019-06-08T00:20:15.469Z,14.60
2019-06-08T00:22:44.733Z,14.60
2019-06-08T00:25:15.794Z,14.60
2019-06-08T00:27:45.309Z,14.60
2019-06-08T00:30:14.442Z,14.60
2019-06-08T00:32:43.482Z,14.60
2019-06-08T00:35:12.582Z,14.60
2019-06-08T00:37:41.684Z,14.50
2019-06-08T00:40:11.230Z,14.40
2019-06-08T00:42:40.404Z,14.40
2019-06-08T00:45:09.571Z,14.40
2019-06-08T00:47:47.759Z,14.40
2019-06-08T00:50:10.597Z,14.40
2019-06-08T00:52:39.573Z,14.40
2019-06-08T00:55:08.640Z,14.40
2019-06-08T00:57:37.709Z,14.40
2019-06-08T01:00:10.863Z,14.30
2019-06-08T01:02:38.018Z,14.30
2019-06-08T01:05:07.485Z,14.20
2019-06-08T01:07:36.450Z,14.20
2019-06-08T01:10:06.760Z,14.20
2019-06-08T01:12:35.812Z,14.20
2019-06-08T01:15:05.634Z,14.20
2019-06-08T01:17:34.743Z,14.20
2019-06-08T01:20:04.277Z,14.10
2019-06-08T01:22:33.374Z,14.20
2019-06-08T01:25:02.425Z,14.20
2019-06-08T01:27:31.514Z,14.20
2019-06-08T01:30:00.588Z,14.20
2019-06-08T01:32:30.586Z,14.20
2019-06-08T01:34:59.819Z,14.20
2019-06-08T01:37:29.132Z,14.20
2019-06-08T01:39:58.836Z,14.20
2019-06-08T01:42:27.819Z,14.20
2019-06-08T01:44:56.770Z,14.20
2019-06-08T01:47:26.169Z,14.20
2019-06-08T01:49:55.311Z,14.20
2019-06-08T01:52:24.634Z,14.20
2019-06-08T01:54:53.885Z,14.20
2019-06-08T01:57:23.143Z,14.30
2019-06-08T01:59:52.188Z,14.30
2019-06-08T02:02:21.216Z,14.30
2019-06-08T02:04:50.263Z,14.30
2019-06-08T02:07:19.350Z,14.30
2019-06-08T02:09:48.390Z,14.30
2019-06-08T02:12:17.436Z,14.30
2019-06-08T02:14:46.470Z,14.30
2019-06-08T02:17:15.462Z,14.30
2019-06-08T02:19:44.497Z,14.30
2019-06-08T02:22:13.565Z,14.30
2019-06-08T02:24:42.612Z,14.20
2019-06-08T02:27:11.711Z,14.20
2019-06-08T02:29:40.755Z,14.20
2019-06-08T02:32:09.810Z,14.20
2019-06-08T02:34:40.494Z,14.20
2019-06-08T02:37:09.713Z,14.20
2019-06-08T02:39:39.957Z,14.20
2019-06-08T02:42:09.370Z,14.20
2019-06-08T02:44:38.461Z,14.20
2019-06-08T02:47:07.498Z,14.20
2019-06-08T02:49:37.574Z,14.20
2019-06-08T02:52:07.471Z,14.10
2019-06-08T02:54:37.868Z,14.10
2019-06-08T02:57:07.327Z,14.00
2019-06-08T02:59:40.569Z,14.00
2019-06-08T03:02:10.594Z,13.90
2019-06-08T03:04:41.239Z,13.80
2019-06-08T03:07:11.167Z,13.80
2019-06-08T03:09:41.070Z,13.70
2019-06-08T03:12:10.398Z,13.70
2019-06-08T03:14:42.139Z,13.70
2019-06-08T03:17:11.359Z,13.60
2019-06-08T03:19:41.771Z,13.60
2019-06-08T03:22:11.452Z,13.60
2019-06-08T03:24:41.413Z,13.50
2019-06-08T03:27:11.227Z,13.50
2019-06-08T03:29:41.648Z,13.50
2019-06-08T03:32:11.274Z,13.40
2019-06-08T03:34:51.569Z,13.40
2019-06-08T03:37:10.997Z,13.40
2019-06-08T03:39:41.320Z,13.40
2019-06-08T03:42:10.820Z,13.30
2019-06-08T03:44:40.454Z,13.30
2019-06-08T03:47:09.595Z,13.30
2019-06-08T03:49:50.648Z,13.30
2019-06-08T03:52:09.454Z,13.30
2019-06-08T03:54:40.496Z,13.30
2019-06-08T03:59:43.728Z,13.30
2019-06-08T04:02:12.783Z,13.40
2019-06-08T04:04:42.269Z,13.40
2019-06-08T04:07:12.599Z,13.40
2019-06-08T04:09:41.734Z,13.40
2019-06-08T04:12:11.037Z,13.40
2019-06-08T04:14:41.681Z,13.40
2019-06-08T04:17:10.803Z,13.40
2019-06-08T04:19:39.930Z,13.30
2019-06-08T04:22:09.082Z,13.30
2019-06-08T04:24:38.114Z,13.30
2019-06-08T04:27:07.167Z,13.30
2019-06-08T04:29:37.601Z,13.40
2019-06-08T04:32:07.043Z,13.40
2019-06-08T04:34:36.169Z,13.40
2019-06-08T04:37:05.228Z,13.40
2019-06-08T04:39:34.318Z,13.30
2019-06-08T04:42:03.395Z,13.30
2019-06-08T04:44:32.416Z,13.30
2019-06-08T04:47:01.637Z,13.30
2019-06-08T04:49:30.685Z,13.30
2019-06-08T04:51:59.658Z,13.30
2019-06-08T04:54:28.609Z,13.30
2019-06-08T04:56:57.691Z,13.30
2019-06-08T04:59:26.674Z,13.30
2019-06-08T05:01:55.687Z,13.30
2019-06-08T05:04:24.710Z,13.30
2019-06-08T05:06:53.768Z,13.30
2019-06-08T05:09:22.850Z,13.30
2019-06-08T05:11:51.877Z,13.30
2019-06-08T05:14:20.930Z,13.30
2019-06-08T05:16:49.950Z,13.30
2019-06-08T05:19:19.257Z,13.30
2019-06-08T05:21:49.707Z,13.30
2019-06-08T05:24:18.963Z,13.30
2019-06-08T05:26:47.941Z,13.30
2019-06-08T05:29:16.991Z,13.30
2019-06-08T05:31:47.288Z,13.30
2019-06-08T05:34:16.693Z,13.30
2019-06-08T05:36:45.718Z,13.30
2019-06-08T05:39:14.706Z,13.30
2019-06-08T05:41:43.808Z,13.30
2019-06-08T05:44:12.726Z,13.40
2019-06-08T05:46:41.865Z,13.40
2019-06-08T05:49:10.928Z,13.40
2019-06-08T05:51:40.131Z,13.40
2019-06-08T05:54:09.162Z,13.40
2019-06-08T05:56:39.719Z,13.30
2019-06-08T05:59:09.149Z,13.40
2019-06-08T06:01:38.222Z,13.40
2019-06-08T06:04:07.237Z,13.40
2019-06-08T06:06:36.277Z,13.30
2019-06-08T06:09:07.561Z,13.30
2019-06-08T06:11:36.616Z,13.30
2019-06-08T06:14:06.122Z,13.30
2019-06-08T06:16:35.158Z,13.40
2019-06-08T06:19:04.231Z,13.40
2019-06-08T06:21:33.295Z,13.40
2019-06-08T06:24:02.323Z,13.40
2019-06-08T06:26:31.418Z,13.40
2019-06-08T06:29:00.589Z,13.40
2019-06-08T06:31:29.803Z,13.40
2019-06-08T06:33:58.861Z,13.40
2019-06-08T06:36:27.843Z,13.40
2019-06-08T06:38:56.953Z,13.40
2019-06-08T06:41:26.029Z,13.40
2019-06-08T06:43:55.075Z,13.40
2019-06-08T06:46:24.057Z,13.40
2019-06-08T06:48:53.170Z,13.40
2019-06-08T06:51:26.122Z,13.40
2019-06-08T06:56:27.811Z,13.40
2019-06-08T06:58:56.872Z,13.40
2019-06-08T07:01:26.553Z,13.50
2019-06-08T07:03:55.609Z,13.50
2019-06-08T07:06:24.831Z,13.50
2019-06-08T07:08:54.611Z,13.50
2019-06-08T07:11:23.868Z,13.50
2019-06-08T07:13:53.153Z,13.50
2019-06-08T07:16:22.410Z,13.50
2019-06-08T07:18:52.605Z,13.50
2019-06-08T07:21:21.803Z,13.60
2019-06-08T07:23:51.256Z,13.60
2019-06-08T07:26:21.497Z,13.60
2019-06-08T07:28:52.425Z,13.60
2019-06-08T07:31:21.412Z,13.60
2019-06-08T07:33:51.876Z,13.50
2019-06-08T07:36:21.341Z,13.50
2019-06-08T07:38:51.385Z,13.50
2019-06-08T07:41:20.809Z,13.50
2019-06-08T07:43:50.769Z,13.50
2019-06-08T07:46:19.983Z,13.50
2019-06-08T07:48:50.403Z,13.50
2019-06-08T07:51:19.676Z,13.50
2019-06-08T07:53:49.846Z,13.50
2019-06-08T07:56:18.895Z,13.50
2019-06-08T07:58:49.581Z,13.50
2019-06-08T08:01:32.806Z,13.40
2019-06-08T08:03:49.944Z,13.40
2019-06-08T08:06:19.078Z,13.40
2019-06-08T08:08:48.462Z,13.40
2019-06-08T08:11:17.534Z,13.40
2019-06-08T08:13:46.846Z,13.40
2019-06-08T08:16:15.921Z,13.40
2019-06-08T08:18:45.137Z,13.40
2019-06-08T08:21:22.160Z,13.40
2019-06-08T08:23:45.141Z,13.40
2019-06-08T08:26:14.219Z,13.30
2019-06-08T08:28:43.287Z,13.30
2019-06-08T08:31:15.293Z,13.40
2019-06-08T08:33:43.313Z,13.40
2019-06-08T08:36:12.428Z,13.40
2019-06-08T08:38:41.497Z,13.40
2019-06-08T08:41:10.966Z,13.40
2019-06-08T08:43:40.149Z,13.50
2019-06-08T08:46:09.216Z,13.50
2019-06-08T08:48:38.262Z,13.50
2019-06-08T08:51:08.570Z,13.50
2019-06-08T08:53:37.937Z,13.50
2019-06-08T08:56:07.314Z,13.50
2019-06-08T08:58:38.082Z,13.60
2019-06-08T09:01:08.207Z,13.60
2019-06-08T09:03:39.612Z,13.60
2019-06-08T09:06:08.798Z,13.60
2019-06-08T09:08:38.063Z,13.70
2019-06-08T09:11:08.159Z,13.70
2019-06-08T09:13:37.869Z,13.70
2019-06-08T09:16:08.027Z,13.80
2019-06-08T09:18:37.744Z,13.80
2019-06-08T09:21:08.356Z,13.80
2019-06-08T09:23:37.935Z,13.80
2019-06-08T09:26:12.160Z,13.80
2019-06-08T09:28:38.853Z,13.80
2019-06-08T09:31:09.341Z,13.90
2019-06-08T09:33:38.968Z,13.90
2019-06-08T09:36:08.476Z,14.00
2019-06-08T09:38:38.699Z,14.00
2019-06-08T09:41:09.030Z,14.00
2019-06-08T09:43:38.927Z,14.00
2019-06-08T09:46:09.400Z,14.00
2019-06-08T09:48:38.605Z,14.00
2019-06-08T09:51:09.405Z,14.00
2019-06-08T09:53:41.438Z,13.90
2019-06-08T09:56:09.913Z,14.00
2019-06-08T09:58:39.477Z,13.90
2019-06-08T10:01:11.505Z,14.00
2019-06-08T10:03:39.505Z,14.00
2019-06-08T10:06:12.130Z,13.90
2019-06-08T10:08:39.390Z,14.00
2019-06-08T10:11:09.691Z,14.00
2019-06-08T10:13:43.118Z,13.90
2019-06-08T10:16:10.764Z,13.90
2019-06-08T10:18:40.407Z,14.00
2019-06-08T10:21:09.770Z,14.10
2019-06-08T10:23:41.758Z,14.10
2019-06-08T10:26:10.085Z,14.20
2019-06-08T10:28:39.248Z,14.30
2019-06-08T10:31:08.724Z,14.40
2019-06-08T10:33:40.509Z,14.50
2019-06-08T10:36:12.207Z,14.50
2019-06-08T10:38:41.275Z,14.60
2019-06-08T10:41:16.172Z,14.70
2019-06-08T10:43:41.207Z,14.80
2019-06-08T10:46:16.616Z,14.90
2019-06-08T10:48:41.379Z,14.90
2019-06-08T10:51:12.858Z,15.00
2019-06-08T10:53:52.572Z,15.00
2019-06-08T10:56:12.497Z,15.10
2019-06-08T10:58:41.579Z,15.10
2019-06-08T11:01:12.696Z,15.10
2019-06-08T11:03:41.614Z,15.20
2019-06-08T11:06:13.117Z,15.20
2019-06-08T11:08:41.757Z,15.30
2019-06-08T11:11:11.960Z,15.50
2019-06-08T11:13:41.421Z,15.50
2019-06-08T11:16:13.234Z,15.60
2019-06-08T11:18:41.283Z,15.70
2019-06-08T11:21:12.687Z,15.80
2019-06-08T11:23:41.666Z,15.80
2019-06-08T11:26:19.377Z,15.90
2019-06-08T11:28:41.886Z,15.90
2019-06-08T11:31:15.767Z,16.00
2019-06-08T11:33:41.696Z,16.00
2019-06-08T11:36:14.361Z,15.80
2019-06-08T11:38:41.625Z,15.70
2019-06-08T11:41:13.559Z,15.60
2019-06-08T11:43:41.525Z,15.50
2019-06-08T11:46:10.706Z,15.40
2019-06-08T11:48:41.501Z,15.40
2019-06-08T11:51:13.007Z,15.50
2019-06-08T11:53:41.539Z,15.50
2019-06-08T11:56:13.344Z,15.50
2019-06-08T11:58:42.674Z,15.60
2019-06-08T12:01:13.778Z,15.70
2019-06-08T12:03:42.355Z,15.70
2019-06-08T12:06:14.141Z,15.70
2019-06-08T12:08:42.360Z,15.70
2019-06-08T12:11:17.257Z,15.80
2019-06-08T12:13:42.387Z,15.90
2019-06-08T12:16:30.583Z,16.00
2019-06-08T12:18:59.645Z,16.00
2019-06-08T12:21:42.581Z,16.10
2019-06-08T12:23:59.471Z,16.20
2019-06-08T12:26:28.585Z,16.20
2019-06-08T12:28:57.997Z,16.30
2019-06-08T12:31:28.437Z,16.40
2019-06-08T12:33:58.743Z,16.40
2019-06-08T12:36:30.400Z,16.50
2019-06-08T12:38:59.056Z,16.50
2019-06-08T12:41:28.871Z,16.60
2019-06-08T12:43:58.923Z,16.70
2019-06-08T12:46:28.181Z,16.70
2019-06-08T12:48:58.279Z,16.70
2019-06-08T12:51:28.135Z,16.70
2019-06-08T12:53:59.838Z,16.60
2019-06-08T12:56:28.774Z,16.50
2019-06-08T12:58:58.083Z,16.60
2019-06-08T13:01:28.231Z,16.70
2019-06-08T13:03:58.140Z,16.70
2019-06-08T13:06:28.231Z,16.70
2019-06-08T13:08:57.897Z,16.80
2019-06-08T13:11:28.311Z,16.80
2019-06-08T13:13:57.559Z,16.80
2019-06-08T13:16:28.415Z,16.90
2019-06-08T13:18:58.704Z,17.00
2019-06-08T13:21:34.637Z,17.00
2019-06-08T13:23:58.966Z,17.20
2019-06-08T13:26:31.042Z,17.30
2019-06-08T13:29:00.581Z,17.30
2019-06-08T13:31:30.156Z,17.30
2019-06-08T13:33:59.205Z,17.40
2019-06-08T13:36:48.512Z,17.50
2019-06-08T13:39:20.120Z,17.50
2019-06-08T13:41:51.809Z,17.60
2019-06-08T13:44:19.803Z,17.60
2019-06-08T13:46:49.122Z,17.70
2019-06-08T13:49:22.986Z,17.80
2019-06-08T13:51:50.784Z,17.80
2019-06-08T13:54:21.450Z,17.90
2019-06-08T13:56:50.725Z,18.00
2019-06-08T13:59:25.038Z,18.00
2019-06-08T14:01:51.299Z,18.10
2019-06-08T14:04:21.037Z,18.10
2019-06-08T14:06:51.199Z,18.20
2019-06-08T14:09:21.769Z,18.20
2019-06-08T14:11:51.085Z,18.30
2019-06-08T14:14:21.597Z,18.20
2019-06-08T14:16:50.955Z,18.20
2019-06-08T14:19:22.988Z,18.30
2019-06-08T14:21:50.731Z,18.40
2019-06-08T14:24:25.646Z,18.40
2019-06-08T14:26:50.913Z,18.40
2019-06-08T14:29:21.462Z,18.40
2019-06-08T14:31:50.705Z,18.50
2019-06-08T14:34:21.828Z,18.60
2019-06-08T14:36:50.588Z,18.60
2019-06-08T14:39:20.593Z,18.60
2019-06-08T14:41:50.622Z,18.70
2019-06-08T14:44:21.051Z,18.70
2019-06-08T14:46:50.425Z,18.70
2019-06-08T14:49:25.057Z,18.70
2019-06-08T14:51:50.641Z,18.80
2019-06-08T14:54:23.391Z,18.80
2019-06-08T14:56:51.267Z,18.80
2019-06-08T14:59:21.941Z,18.80
2019-06-08T15:01:51.466Z,18.90
2019-06-08T15:04:23.837Z,18.90
2019-06-08T15:06:51.519Z,18.90
2019-06-08T15:09:21.355Z,18.90
2019-06-08T15:11:50.647Z,18.80
2019-06-08T15:14:19.688Z,18.80
2019-06-08T15:16:49.347Z,18.80
2019-06-08T15:19:18.637Z,18.90
2019-06-08T15:21:48.461Z,18.90
2019-06-08T15:24:18.524Z,19.00
2019-06-08T15:26:48.913Z,19.00
2019-06-08T15:29:20.700Z,19.10
2019-06-08T15:31:50.302Z,19.20
2019-06-08T15:34:19.462Z,19.20
2019-06-08T15:36:48.517Z,19.20
2019-06-08T15:39:18.063Z,19.40
2019-06-08T15:41:48.735Z,19.50
2019-06-08T15:44:21.420Z,19.60
2019-06-08T15:46:49.014Z,19.60
2019-06-08T15:49:18.589Z,19.60
2019-06-08T15:51:48.194Z,19.70
2019-06-08T15:54:17.661Z,19.80
2019-06-08T15:56:51.808Z,19.90
2019-06-08T15:59:17.653Z,20.00
2019-06-08T16:01:46.767Z,20.10
2019-06-08T16:04:15.854Z,20.10
2019-06-08T16:06:45.011Z,20.00
2019-06-08T16:09:14.165Z,20.00
2019-06-08T16:11:43.127Z,20.10
2019-06-08T16:14:12.223Z,20.20
2019-06-08T16:16:41.262Z,20.20
2019-06-08T16:19:10.321Z,20.30
2019-06-08T16:21:39.384Z,20.30
2019-06-08T16:24:08.414Z,20.30
2019-06-08T16:26:52.261Z,20.40
2019-06-08T16:29:08.275Z,20.50
2019-06-08T16:31:37.317Z,20.50
2019-06-08T16:34:06.493Z,20.50
2019-06-08T16:36:35.670Z,20.50
2019-06-08T16:39:06.923Z,20.60
2019-06-08T16:41:36.158Z,20.70
2019-06-08T16:44:07.198Z,20.70
2019-06-08T16:46:36.710Z,20.70
2019-06-08T16:49:05.857Z,20.70
2019-06-08T16:51:35.813Z,20.60
2019-06-08T16:54:05.344Z,20.60
2019-06-08T16:56:34.391Z,20.60
2019-06-08T16:59:03.467Z,20.60
2019-06-08T17:01:32.884Z,20.60
2019-06-08T17:04:02.240Z,20.60
2019-06-08T17:06:31.301Z,20.50
2019-06-08T17:09:00.418Z,20.50
2019-06-08T17:11:29.626Z,20.40
2019-06-08T17:13:58.929Z,20.40
2019-06-08T17:16:27.960Z,20.40
2019-06-08T17:18:57.062Z,20.30
2019-06-08T17:21:26.139Z,20.30
2019-06-08T17:23:55.274Z,20.20
2019-06-08T17:26:24.345Z,20.10
2019-06-08T17:28:53.414Z,20.00
2019-06-08T17:31:22.557Z,19.80
2019-06-08T17:33:51.643Z,19.70
2019-06-08T17:36:20.630Z,19.70
2019-06-08T17:38:49.642Z,19.60
2019-06-08T17:41:18.731Z,19.50
2019-06-08T17:43:47.800Z,19.50
2019-06-08T17:46:16.873Z,19.40
2019-06-08T17:48:45.962Z,19.30
2019-06-08T17:51:15.009Z,19.30
2019-06-08T17:53:44.267Z,19.20
2019-06-08T17:56:13.383Z,19.00
2019-06-08T17:58:43.413Z,19.00
2019-06-08T18:01:12.870Z,18.90
2019-06-08T18:03:42.800Z,18.70
2019-06-08T18:06:12.717Z,18.70
2019-06-08T18:08:43.646Z,18.60
2019-06-08T18:11:12.582Z,18.40
2019-06-08T18:13:43.999Z,18.30
2019-06-08T18:16:12.455Z,18.30
2019-06-08T18:18:42.299Z,18.30
2019-06-08T18:21:12.455Z,18.20
2019-06-08T18:23:42.420Z,18.10
2019-06-08T18:26:12.350Z,18.10
2019-06-08T18:28:43.579Z,18.00
2019-06-08T18:31:12.133Z,17.90
2019-06-08T18:33:43.633Z,17.80
2019-06-08T18:36:11.981Z,17.80
2019-06-08T18:38:42.784Z,17.70
2019-06-08T18:41:11.732Z,17.70
2019-06-08T18:43:41.533Z,17.60
2019-06-08T18:46:11.573Z,17.60
2019-06-08T18:48:42.128Z,17.50
2019-06-08T18:51:12.522Z,17.40
2019-06-08T18:54:01.801Z,17.30
2019-06-08T18:56:12.366Z,17.30
2019-06-08T18:58:42.166Z,17.30
2019-06-08T19:01:11.357Z,17.20
2019-06-08T19:03:44.539Z,17.10
2019-06-08T19:06:11.206Z,17.10
2019-06-08T19:08:43.447Z,17.00
2019-06-08T19:11:11.137Z,16.90
2019-06-08T19:13:41.408Z,16.90
2019-06-08T19:16:10.586Z,16.80
2019-06-08T19:18:43.709Z,16.80
2019-06-08T19:21:10.628Z,16.70
2019-06-08T19:23:43.046Z,16.70
2019-06-08T19:26:10.840Z,16.70
2019-06-08T19:28:42.868Z,16.60
2019-06-08T19:31:10.610Z,16.60
2019-06-08T19:33:40.118Z,16.50
2019-06-08T19:36:09.474Z,16.40
2019-06-08T19:38:40.037Z,16.30
2019-06-08T19:41:09.337Z,16.20
2019-06-08T19:43:40.191Z,16.20
2019-06-08T19:46:09.273Z,16.20
2019-06-08T19:48:39.636Z,16.10
2019-06-08T19:51:09.071Z,16.00
2019-06-08T19:53:43.446Z,16.00
2019-06-08T19:56:08.932Z,15.90
2019-06-08T19:58:50.688Z,15.80
2019-06-08T20:01:08.802Z,15.80
2019-06-08T20:03:38.006Z,15.80
2019-06-08T20:06:07.159Z,15.70
2019-06-08T20:08:37.478Z,15.60
2019-06-08T20:11:08.353Z,15.60
2019-06-08T20:13:37.749Z,15.50
2019-06-08T20:16:08.375Z,15.50
2019-06-08T20:18:37.691Z,15.50
2019-06-08T20:21:09.641Z,15.40
2019-06-08T20:23:38.277Z,15.40
2019-06-08T20:26:08.382Z,15.40
2019-06-08T20:28:37.737Z,15.40
2019-06-08T20:31:07.488Z,15.30
2019-06-08T20:33:37.893Z,15.30
2019-06-08T20:36:08.336Z,15.30
2019-06-08T20:38:41.678Z,15.20
2019-06-08T20:41:08.774Z,15.20
2019-06-08T20:43:40.757Z,15.20
2019-06-08T20:46:08.627Z,15.10
2019-06-08T20:48:37.898Z,15.10
2019-06-08T20:51:07.973Z,15.10
2019-06-08T20:53:38.769Z,15.10
2019-06-08T20:56:08.206Z,15.00
2019-06-08T20:58:37.401Z,15.00
2019-06-08T21:01:07.342Z,14.90
2019-06-08T21:03:36.598Z,14.90
2019-06-08T21:06:07.706Z,14.90
2019-06-08T21:08:37.258Z,14.80
2019-06-08T21:11:08.464Z,14.80
2019-06-08T21:13:37.646Z,14.70
2019-06-08T21:16:07.551Z,14.80
2019-06-08T21:18:37.928Z,14.70
2019-06-08T21:21:08.097Z,14.70
2019-06-08T21:23:37.537Z,14.70
2019-06-08T21:26:07.952Z,14.60
2019-06-08T21:28:38.559Z,14.60
2019-06-08T21:31:08.505Z,14.60
2019-06-08T21:33:38.049Z,14.60
2019-06-08T21:36:08.744Z,14.60
2019-06-08T21:38:38.207Z,14.50
2019-06-08T21:41:08.262Z,14.50
2019-06-08T21:43:37.591Z,14.40
2019-06-08T21:46:07.857Z,14.40
2019-06-08T21:48:38.148Z,14.40
2019-06-08T21:51:08.252Z,14.40
2019-06-08T21:53:38.156Z,14.30
2019-06-08T21:56:08.002Z,14.30
2019-06-08T21:58:37.822Z,14.30
2019-06-08T22:01:07.554Z,14.30
2019-06-08T22:03:38.075Z,14.20
2019-06-08T22:06:08.063Z,14.20
2019-06-08T22:08:37.691Z,14.20
2019-06-08T22:11:08.584Z,14.10
2019-06-08T22:13:37.825Z,14.10
2019-06-08T22:16:08.190Z,14.10
2019-06-08T22:18:38.176Z,14.10
2019-06-08T22:21:08.298Z,14.00
2019-06-08T22:23:37.705Z,14.00
2019-06-08T22:26:08.324Z,14.00
2019-06-08T22:28:37.850Z,13.90
2019-06-08T22:31:07.950Z,13.90
2019-06-08T22:33:37.944Z,13.90
2019-06-08T22:36:09.160Z,13.90
2019-06-08T22:38:37.957Z,13.90
2019-06-08T22:41:08.064Z,13.80
2019-06-08T22:43:37.621Z,13.80
2019-06-08T22:46:26.126Z,13.80
2019-06-08T22:48:57.739Z,13.80
2019-06-08T22:51:27.704Z,13.70
2019-06-08T22:53:58.925Z,13.70
2019-06-08T22:56:27.703Z,13.70
2019-06-08T22:59:00.519Z,13.60
2019-06-08T23:01:27.985Z,13.60
2019-06-08T23:04:00.882Z,13.60
2019-06-08T23:06:28.205Z,13.60
2019-06-08T23:09:00.952Z,13.60
2019-06-08T23:11:28.522Z,13.60
2019-06-08T23:13:59.562Z,13.50
2019-06-08T23:16:28.454Z,13.50
2019-06-08T23:18:58.880Z,13.50
2019-06-08T23:21:28.361Z,13.50
2019-06-08T23:23:59.286Z,13.50
2019-06-08T23:26:28.279Z,13.40
2019-06-08T23:28:58.097Z,13.40
2019-06-08T23:31:29.083Z,13.40
2019-06-08T23:34:00.277Z,13.30
2019-06-08T23:36:48.552Z,13.30
2019-06-08T23:39:01.010Z,13.30
2019-06-08T23:41:30.405Z,13.30
2019-06-08T23:43:59.575Z,13.30
2019-06-08T23:46:28.711Z,13.30
2019-06-08T23:49:00.583Z,13.20
2019-06-08T23:51:28.622Z,13.20
2019-06-08T23:53:59.650Z,13.20
2019-06-08T23:56:28.457Z,13.20
2019-06-08T23:58:57.542Z,13.20
